sensor_id;sensor_type;location;lat;lon;timestamp;temperature;humidity
8939;DHT22;4504;48.810;9.172;2024-02-23T00:01:45;6.80;99.90
8939;DHT22;4504;48.810;9.172;2024-02-23T00:04:12;6.70;99.90
8939;DHT22;4504;48.810;9.172;2024-02-23T00:06:40;6.70;99.90
8939;DHT22;4504;48.810;9.172;2024-02-23T00:09:08;6.70;99.90
8939;DHT22;4504;48.810;9.172;2024-02-23T00:11:36;6.80;99.90
8939;DHT22;4504;48.810;9.172;2024-02-23T00:14:07;6.70;99.90
8939;DHT22;4504;48.810;9.172;2024-02-23T00:16:37;6.80;99.90
8939;DHT22;4504;48.810;9.172;2024-02-23T00:19:05;6.80;99.90
8939;DHT22;4504;48.810;9.172;2024-02-23T00:21:32;6.70;99.90
8939;DHT22;4504;48.810;9.172;2024-02-23T00:23:59;6.80;99.90
8939;DHT22;4504;48.810;9.172;2024-02-23T00:26:27;6.70;99.90
8939;DHT22;4504;48.810;9.172;2024-02-23T00:28:55;6.70;99.90
8939;DHT22;4504;48.810;9.172;2024-02-23T00:31:22;6.80;99.90
8939;DHT22;4504;48.810;9.172;2024-02-23T00:33:49;6.70;99.90
8939;DHT22;4504;48.810;9.172;2024-02-23T00:36:16;6.70;99.90
8939;DHT22;4504;48.810;9.172;2024-02-23T00:38:43;6.80;99.90
8939;DHT22;4504;48.810;9.172;2024-02-23T00:41:10;6.80;99.90
8939;DHT22;4504;48.810;9.172;2024-02-23T00:43:39;6.80;99.90
8939;DHT22;4504;48.810;9.172;2024-02-23T00:46:07;6.80;99.90
8939;DHT22;4504;48.810;9.172;2024-02-23T00:48:34;6.80;99.90
8939;DHT22;4504;48.810;9.172;2024-02-23T00:51:02;6.90;99.90
8939;DHT22;4504;48.810;9.172;2024-02-23T00:53:30;6.90;99.90
8939;DHT22;4504;48.810;9.172;2024-02-23T00:55:57;6.80;99.90
8939;DHT22;4504;48.810;9.172;2024-02-23T00:58:24;6.80;99.90
8939;DHT22;4504;48.810;9.172;2024-02-23T01:00:52;6.80;99.90
8939;DHT22;4504;48.810;9.172;2024-02-23T01:03:19;6.80;99.90
8939;DHT22;4504;48.810;9.172;2024-02-23T01:05:46;6.90;99.90
8939;DHT22;4504;48.810;9.172;2024-02-23T01:08:13;6.80;99.90
8939;DHT22;4504;48.810;9.172;2024-02-23T01:10:41;6.90;99.90
8939;DHT22;4504;48.810;9.172;2024-02-23T01:13:08;6.90;99.90
8939;DHT22;4504;48.810;9.172;2024-02-23T01:15:35;6.90;99.90
8939;DHT22;4504;48.810;9.172;2024-02-23T01:18:04;6.90;99.90
8939;DHT22;4504;48.810;9.172;2024-02-23T01:20:31;6.80;99.90
8939;DHT22;4504;48.810;9.172;2024-02-23T01:22:58;6.80;99.90
8939;DHT22;4504;48.810;9.172;2024-02-23T01:25:25;6.80;99.90
8939;DHT22;4504;48.810;9.172;2024-02-23T01:27:52;6.90;99.90
8939;DHT22;4504;48.810;9.172;2024-02-23T01:30:19;6.90;99.90
8939;DHT22;4504;48.810;9.172;2024-02-23T01:32:46;6.90;99.90
8939;DHT22;4504;48.810;9.172;2024-02-23T01:35:15;6.90;99.90
8939;DHT22;4504;48.810;9.172;2024-02-23T01:37:42;7.00;99.90
8939;DHT22;4504;48.810;9.172;2024-02-23T01:40:09;6.80;99.90
8939;DHT22;4504;48.810;9.172;2024-02-23T01:42:36;6.80;99.90
8939;DHT22;4504;48.810;9.172;2024-02-23T01:45:04;6.80;99.90
8939;DHT22;4504;48.810;9.172;2024-02-23T01:47:31;6.80;99.90
8939;DHT22;4504;48.810;9.172;2024-02-23T01:49:59;6.80;99.90
8939;DHT22;4504;48.810;9.172;2024-02-23T01:52:27;6.90;99.90
8939;DHT22;4504;48.810;9.172;2024-02-23T01:54:55;6.80;99.90
8939;DHT22;4504;48.810;9.172;2024-02-23T01:57:23;6.90;99.90
8939;DHT22;4504;48.810;9.172;2024-02-23T01:59:50;6.90;99.90
8939;DHT22;4504;48.810;9.172;2024-02-23T02:02:18;6.90;99.90
8939;DHT22;4504;48.810;9.172;2024-02-23T02:04:45;6.90;99.90
8939;DHT22;4504;48.810;9.172;2024-02-23T02:07:12;6.90;99.90
8939;DHT22;4504;48.810;9.172;2024-02-23T02:09:41;6.90;99.90
8939;DHT22;4504;48.810;9.172;2024-02-23T02:12:08;6.90;99.90
8939;DHT22;4504;48.810;9.172;2024-02-23T02:14:35;6.90;99.90
8939;DHT22;4504;48.810;9.172;2024-02-23T02:17:02;6.90;99.90
8939;DHT22;4504;48.810;9.172;2024-02-23T02:19:29;6.90;99.90
8939;DHT22;4504;48.810;9.172;2024-02-23T02:21:56;7.00;99.90
8939;DHT22;4504;48.810;9.172;2024-02-23T02:24:23;7.00;99.90
8939;DHT22;4504;48.810;9.172;2024-02-23T02:26:52;7.10;99.90
8939;DHT22;4504;48.810;9.172;2024-02-23T02:29:19;7.00;99.90
8939;DHT22;4504;48.810;9.172;2024-02-23T02:31:46;7.00;99.90
8939;DHT22;4504;48.810;9.172;2024-02-23T02:34:13;7.00;99.90
8939;DHT22;4504;48.810;9.172;2024-02-23T02:36:40;7.00;99.90
8939;DHT22;4504;48.810;9.172;2024-02-23T02:39:07;7.00;99.90
8939;DHT22;4504;48.810;9.172;2024-02-23T02:41:34;7.00;99.90
8939;DHT22;4504;48.810;9.172;2024-02-23T02:44:03;6.90;99.90
8939;DHT22;4504;48.810;9.172;2024-02-23T02:46:30;6.80;99.90
8939;DHT22;4504;48.810;9.172;2024-02-23T02:48:57;6.80;99.90
8939;DHT22;4504;48.810;9.172;2024-02-23T02:51:24;6.80;99.90
8939;DHT22;4504;48.810;9.172;2024-02-23T02:53:51;6.80;99.90
8939;DHT22;4504;48.810;9.172;2024-02-23T02:56:18;6.80;99.90
8939;DHT22;4504;48.810;9.172;2024-02-23T02:58:45;6.90;99.90
8939;DHT22;4504;48.810;9.172;2024-02-23T03:01:13;6.90;99.90
8939;DHT22;4504;48.810;9.172;2024-02-23T03:03:40;6.80;99.90
8939;DHT22;4504;48.810;9.172;2024-02-23T03:06:07;6.90;99.90
8939;DHT22;4504;48.810;9.172;2024-02-23T03:08:35;6.90;99.90
8939;DHT22;4504;48.810;9.172;2024-02-23T03:11:02;6.90;99.90
8939;DHT22;4504;48.810;9.172;2024-02-23T03:13:29;6.90;99.90
8939;DHT22;4504;48.810;9.172;2024-02-23T03:15:57;6.80;99.90
8939;DHT22;4504;48.810;9.172;2024-02-23T03:18:25;6.80;99.90
8939;DHT22;4504;48.810;9.172;2024-02-23T03:20:53;6.80;99.90
8939;DHT22;4504;48.810;9.172;2024-02-23T03:23:20;6.90;99.90
8939;DHT22;4504;48.810;9.172;2024-02-23T03:25:47;6.90;99.90
8939;DHT22;4504;48.810;9.172;2024-02-23T03:28:14;6.80;99.90
8939;DHT22;4504;48.810;9.172;2024-02-23T03:30:41;6.80;99.90
8939;DHT22;4504;48.810;9.172;2024-02-23T03:33:08;6.70;99.90
8939;DHT22;4504;48.810;9.172;2024-02-23T03:35:37;6.80;99.90
8939;DHT22;4504;48.810;9.172;2024-02-23T03:38:04;6.70;99.90
8939;DHT22;4504;48.810;9.172;2024-02-23T03:40:31;6.70;99.90
8939;DHT22;4504;48.810;9.172;2024-02-23T03:42:58;6.70;99.90
8939;DHT22;4504;48.810;9.172;2024-02-23T03:45:25;6.70;99.90
8939;DHT22;4504;48.810;9.172;2024-02-23T03:47:52;6.70;99.90
8939;DHT22;4504;48.810;9.172;2024-02-23T03:50:19;6.80;99.90
8939;DHT22;4504;48.810;9.172;2024-02-23T03:52:47;6.70;99.90
8939;DHT22;4504;48.810;9.172;2024-02-23T03:55:15;6.60;99.90
8939;DHT22;4504;48.810;9.172;2024-02-23T03:57:41;6.60;99.90
8939;DHT22;4504;48.810;9.172;2024-02-23T04:00:10;6.70;99.90
8939;DHT22;4504;48.810;9.172;2024-02-23T04:02:41;6.70;99.90
8939;DHT22;4504;48.810;9.172;2024-02-23T04:05:08;6.70;99.90
8939;DHT22;4504;48.810;9.172;2024-02-23T04:07:35;6.70;99.90
8939;DHT22;4504;48.810;9.172;2024-02-23T04:10:04;6.60;99.90
8939;DHT22;4504;48.810;9.172;2024-02-23T04:12:31;6.50;99.90
8939;DHT22;4504;48.810;9.172;2024-02-23T04:14:58;6.50;99.90
8939;DHT22;4504;48.810;9.172;2024-02-23T04:17:25;6.50;99.90
8939;DHT22;4504;48.810;9.172;2024-02-23T04:19:52;6.60;99.90
8939;DHT22;4504;48.810;9.172;2024-02-23T04:22:19;6.60;99.90
8939;DHT22;4504;48.810;9.172;2024-02-23T04:24:46;6.50;99.90
8939;DHT22;4504;48.810;9.172;2024-02-23T04:27:14;6.50;99.90
8939;DHT22;4504;48.810;9.172;2024-02-23T04:29:41;6.50;99.90
8939;DHT22;4504;48.810;9.172;2024-02-23T04:32:08;6.50;99.90
8939;DHT22;4504;48.810;9.172;2024-02-23T04:34:35;6.40;99.90
8939;DHT22;4504;48.810;9.172;2024-02-23T04:37:02;6.40;99.90
8939;DHT22;4504;48.810;9.172;2024-02-23T04:39:29;6.40;99.90
8939;DHT22;4504;48.810;9.172;2024-02-23T04:41:56;6.40;99.90
8939;DHT22;4504;48.810;9.172;2024-02-23T04:44:25;6.40;99.90
8939;DHT22;4504;48.810;9.172;2024-02-23T04:46:52;6.40;99.90
8939;DHT22;4504;48.810;9.172;2024-02-23T04:49:19;6.40;99.90
8939;DHT22;4504;48.810;9.172;2024-02-23T04:51:45;6.40;99.90
8939;DHT22;4504;48.810;9.172;2024-02-23T04:54:13;6.40;99.90
8939;DHT22;4504;48.810;9.172;2024-02-23T04:56:39;6.40;99.90
8939;DHT22;4504;48.810;9.172;2024-02-23T04:59:06;6.30;99.90
8939;DHT22;4504;48.810;9.172;2024-02-23T05:01:36;6.20;99.90
8939;DHT22;4504;48.810;9.172;2024-02-23T05:04:04;6.20;99.90
8939;DHT22;4504;48.810;9.172;2024-02-23T05:06:31;6.30;99.90
8939;DHT22;4504;48.810;9.172;2024-02-23T05:08:58;6.30;99.90
8939;DHT22;4504;48.810;9.172;2024-02-23T05:11:25;6.20;99.90
8939;DHT22;4504;48.810;9.172;2024-02-23T05:13:52;6.10;99.90
8939;DHT22;4504;48.810;9.172;2024-02-23T05:16:21;6.20;99.90
8939;DHT22;4504;48.810;9.172;2024-02-23T05:18:49;6.20;99.90
8939;DHT22;4504;48.810;9.172;2024-02-23T05:21:16;6.20;99.90
8939;DHT22;4504;48.810;9.172;2024-02-23T05:23:43;6.20;99.90
8939;DHT22;4504;48.810;9.172;2024-02-23T05:26:12;6.20;99.90
8939;DHT22;4504;48.810;9.172;2024-02-23T05:28:39;6.10;99.90
8939;DHT22;4504;48.810;9.172;2024-02-23T05:31:06;6.00;99.90
8939;DHT22;4504;48.810;9.172;2024-02-23T05:33:33;6.00;99.90
8939;DHT22;4504;48.810;9.172;2024-02-23T05:36:01;6.00;99.90
8939;DHT22;4504;48.810;9.172;2024-02-23T05:38:28;5.90;99.90
8939;DHT22;4504;48.810;9.172;2024-02-23T05:40:56;5.90;99.90
8939;DHT22;4504;48.810;9.172;2024-02-23T05:43:22;5.90;99.90
8939;DHT22;4504;48.810;9.172;2024-02-23T05:45:49;5.90;99.90
8939;DHT22;4504;48.810;9.172;2024-02-23T05:48:16;6.00;99.90
8939;DHT22;4504;48.810;9.172;2024-02-23T05:50:44;6.00;99.90
8939;DHT22;4504;48.810;9.172;2024-02-23T05:53:12;6.00;99.90
8939;DHT22;4504;48.810;9.172;2024-02-23T05:55:39;6.00;99.90
8939;DHT22;4504;48.810;9.172;2024-02-23T05:58:06;5.90;99.90
8939;DHT22;4504;48.810;9.172;2024-02-23T06:00:34;5.90;99.90
8939;DHT22;4504;48.810;9.172;2024-02-23T06:03:01;5.80;99.90
8939;DHT22;4504;48.810;9.172;2024-02-23T06:05:28;5.80;99.90
8939;DHT22;4504;48.810;9.172;2024-02-23T06:07:55;5.70;99.90
8939;DHT22;4504;48.810;9.172;2024-02-23T06:10:24;5.60;99.90
8939;DHT22;4504;48.810;9.172;2024-02-23T06:12:51;5.60;99.90
8939;DHT22;4504;48.810;9.172;2024-02-23T06:15:18;5.50;99.90
8939;DHT22;4504;48.810;9.172;2024-02-23T06:17:45;5.60;99.90
8939;DHT22;4504;48.810;9.172;2024-02-23T06:20:12;5.60;99.90
8939;DHT22;4504;48.810;9.172;2024-02-23T06:22:39;5.50;99.90
8939;DHT22;4504;48.810;9.172;2024-02-23T06:25:06;5.50;99.90
8939;DHT22;4504;48.810;9.172;2024-02-23T06:27:36;5.40;99.90
8939;DHT22;4504;48.810;9.172;2024-02-23T06:30:03;5.40;99.90
8939;DHT22;4504;48.810;9.172;2024-02-23T06:32:30;5.40;99.90
8939;DHT22;4504;48.810;9.172;2024-02-23T06:34:57;5.40;99.90
8939;DHT22;4504;48.810;9.172;2024-02-23T06:37:24;5.40;99.90
8939;DHT22;4504;48.810;9.172;2024-02-23T06:39:51;5.40;99.90
8939;DHT22;4504;48.810;9.172;2024-02-23T06:42:20;5.40;99.90
8939;DHT22;4504;48.810;9.172;2024-02-23T06:44:48;5.50;99.90
8939;DHT22;4504;48.810;9.172;2024-02-23T06:47:16;5.50;99.90
8939;DHT22;4504;48.810;9.172;2024-02-23T06:49:43;5.50;99.90
8939;DHT22;4504;48.810;9.172;2024-02-23T06:52:10;5.60;99.90
8939;DHT22;4504;48.810;9.172;2024-02-23T06:54:37;5.60;99.90
8939;DHT22;4504;48.810;9.172;2024-02-23T06:57:05;5.60;99.90
8939;DHT22;4504;48.810;9.172;2024-02-23T06:59:32;5.70;99.90
8939;DHT22;4504;48.810;9.172;2024-02-23T07:02:01;5.70;99.90
8939;DHT22;4504;48.810;9.172;2024-02-23T07:04:29;5.80;99.90
8939;DHT22;4504;48.810;9.172;2024-02-23T07:06:57;5.80;99.90
8939;DHT22;4504;48.810;9.172;2024-02-23T07:09:24;5.90;99.90
8939;DHT22;4504;48.810;9.172;2024-02-23T07:11:51;5.90;99.90
8939;DHT22;4504;48.810;9.172;2024-02-23T07:14:18;5.90;99.90
8939;DHT22;4504;48.810;9.172;2024-02-23T07:16:47;5.90;99.90
8939;DHT22;4504;48.810;9.172;2024-02-23T07:19:16;5.90;99.90
8939;DHT22;4504;48.810;9.172;2024-02-23T07:21:43;5.90;99.90
8939;DHT22;4504;48.810;9.172;2024-02-23T07:24:10;5.90;99.90
8939;DHT22;4504;48.810;9.172;2024-02-23T07:26:37;5.90;99.90
8939;DHT22;4504;48.810;9.172;2024-02-23T07:29:04;5.90;99.90
8939;DHT22;4504;48.810;9.172;2024-02-23T07:31:31;5.90;99.90
8939;DHT22;4504;48.810;9.172;2024-02-23T07:33:58;6.00;99.90
8939;DHT22;4504;48.810;9.172;2024-02-23T07:36:27;6.00;99.90
8939;DHT22;4504;48.810;9.172;2024-02-23T07:38:54;6.00;99.90
8939;DHT22;4504;48.810;9.172;2024-02-23T07:41:21;6.00;99.90
8939;DHT22;4504;48.810;9.172;2024-02-23T07:43:48;6.00;99.90
8939;DHT22;4504;48.810;9.172;2024-02-23T07:46:15;6.00;99.90
8939;DHT22;4504;48.810;9.172;2024-02-23T07:48:42;6.10;99.90
8939;DHT22;4504;48.810;9.172;2024-02-23T07:51:09;6.20;99.90
8939;DHT22;4504;48.810;9.172;2024-02-23T07:53:37;6.20;99.90
8939;DHT22;4504;48.810;9.172;2024-02-23T07:56:07;6.20;99.90
8939;DHT22;4504;48.810;9.172;2024-02-23T07:58:34;6.30;99.90
8939;DHT22;4504;48.810;9.172;2024-02-23T08:01:01;6.30;99.90
8939;DHT22;4504;48.810;9.172;2024-02-23T08:03:29;6.40;99.90
8939;DHT22;4504;48.810;9.172;2024-02-23T08:05:55;6.40;99.90
8939;DHT22;4504;48.810;9.172;2024-02-23T08:08:22;6.30;99.90
8939;DHT22;4504;48.810;9.172;2024-02-23T08:10:52;6.30;99.90
8939;DHT22;4504;48.810;9.172;2024-02-23T08:13:19;6.30;99.90
8939;DHT22;4504;48.810;9.172;2024-02-23T08:15:46;6.40;99.90
8939;DHT22;4504;48.810;9.172;2024-02-23T08:18:13;6.40;99.90
8939;DHT22;4504;48.810;9.172;2024-02-23T08:20:40;6.30;99.90
8939;DHT22;4504;48.810;9.172;2024-02-23T08:23:07;6.30;99.90
8939;DHT22;4504;48.810;9.172;2024-02-23T08:25:35;6.20;99.90
8939;DHT22;4504;48.810;9.172;2024-02-23T08:28:04;6.10;99.90
8939;DHT22;4504;48.810;9.172;2024-02-23T08:30:31;6.10;99.90
8939;DHT22;4504;48.810;9.172;2024-02-23T08:32:58;6.10;99.90
8939;DHT22;4504;48.810;9.172;2024-02-23T08:35:26;6.10;99.90
8939;DHT22;4504;48.810;9.172;2024-02-23T08:37:53;6.10;99.90
8939;DHT22;4504;48.810;9.172;2024-02-23T08:40:20;6.20;99.90
8939;DHT22;4504;48.810;9.172;2024-02-23T08:42:47;6.20;99.90
8939;DHT22;4504;48.810;9.172;2024-02-23T08:45:17;6.30;99.90
8939;DHT22;4504;48.810;9.172;2024-02-23T08:47:44;6.30;99.90
8939;DHT22;4504;48.810;9.172;2024-02-23T08:50:11;6.30;99.90
8939;DHT22;4504;48.810;9.172;2024-02-23T08:52:37;6.30;99.90
8939;DHT22;4504;48.810;9.172;2024-02-23T08:55:05;6.30;99.90
8939;DHT22;4504;48.810;9.172;2024-02-23T08:57:32;6.30;99.90
8939;DHT22;4504;48.810;9.172;2024-02-23T08:59:59;6.40;99.90
8939;DHT22;4504;48.810;9.172;2024-02-23T09:02:27;6.50;99.90
8939;DHT22;4504;48.810;9.172;2024-02-23T09:04:54;6.50;99.90
8939;DHT22;4504;48.810;9.172;2024-02-23T09:07:21;6.80;99.90
8939;DHT22;4504;48.810;9.172;2024-02-23T09:09:48;6.40;99.90
8939;DHT22;4504;48.810;9.172;2024-02-23T09:12:15;6.30;99.90
8939;DHT22;4504;48.810;9.172;2024-02-23T09:14:42;6.30;99.90
8939;DHT22;4504;48.810;9.172;2024-02-23T09:17:10;6.20;99.90
8939;DHT22;4504;48.810;9.172;2024-02-23T09:19:39;6.30;99.90
8939;DHT22;4504;48.810;9.172;2024-02-23T09:22:06;6.30;99.90
8939;DHT22;4504;48.810;9.172;2024-02-23T09:24:33;6.20;99.90
8939;DHT22;4504;48.810;9.172;2024-02-23T09:27:00;6.20;99.90
8939;DHT22;4504;48.810;9.172;2024-02-23T09:29:27;6.30;99.90
8939;DHT22;4504;48.810;9.172;2024-02-23T09:31:54;6.20;99.90
8939;DHT22;4504;48.810;9.172;2024-02-23T09:34:21;6.30;99.90
8939;DHT22;4504;48.810;9.172;2024-02-23T09:36:49;6.30;99.90
8939;DHT22;4504;48.810;9.172;2024-02-23T09:39:16;6.30;99.90
8939;DHT22;4504;48.810;9.172;2024-02-23T09:41:44;6.30;99.90
8939;DHT22;4504;48.810;9.172;2024-02-23T09:44:11;6.40;99.90
8939;DHT22;4504;48.810;9.172;2024-02-23T09:46:40;6.40;99.90
8939;DHT22;4504;48.810;9.172;2024-02-23T09:49:11;6.40;99.90
8939;DHT22;4504;48.810;9.172;2024-02-23T09:51:39;6.40;99.90
8939;DHT22;4504;48.810;9.172;2024-02-23T09:54:08;6.50;99.90
8939;DHT22;4504;48.810;9.172;2024-02-23T09:56:35;6.50;99.90
8939;DHT22;4504;48.810;9.172;2024-02-23T09:59:03;6.60;99.90
8939;DHT22;4504;48.810;9.172;2024-02-23T10:01:31;6.70;99.90
8939;DHT22;4504;48.810;9.172;2024-02-23T10:03:59;6.80;99.90
8939;DHT22;4504;48.810;9.172;2024-02-23T10:06:28;7.00;99.90
8939;DHT22;4504;48.810;9.172;2024-02-23T10:08:55;7.10;99.90
8939;DHT22;4504;48.810;9.172;2024-02-23T10:11:24;7.30;99.90
8939;DHT22;4504;48.810;9.172;2024-02-23T10:13:51;7.40;99.90
8939;DHT22;4504;48.810;9.172;2024-02-23T10:16:19;7.40;99.90
8939;DHT22;4504;48.810;9.172;2024-02-23T10:18:47;7.50;99.90
8939;DHT22;4504;48.810;9.172;2024-02-23T10:21:14;7.50;99.90
8939;DHT22;4504;48.810;9.172;2024-02-23T10:23:43;7.50;99.90
8939;DHT22;4504;48.810;9.172;2024-02-23T10:26:11;7.40;99.90
8939;DHT22;4504;48.810;9.172;2024-02-23T10:28:39;7.40;99.90
8939;DHT22;4504;48.810;9.172;2024-02-23T10:31:06;7.30;99.90
8939;DHT22;4504;48.810;9.172;2024-02-23T10:33:34;7.30;99.90
8939;DHT22;4504;48.810;9.172;2024-02-23T10:36:05;7.50;99.90
8939;DHT22;4504;48.810;9.172;2024-02-23T10:38:35;7.50;99.90
8939;DHT22;4504;48.810;9.172;2024-02-23T10:41:05;7.60;99.90
8939;DHT22;4504;48.810;9.172;2024-02-23T10:43:39;7.70;99.90
8939;DHT22;4504;48.810;9.172;2024-02-23T10:46:09;7.70;99.90
8939;DHT22;4504;48.810;9.172;2024-02-23T10:48:39;7.80;99.90
8939;DHT22;4504;48.810;9.172;2024-02-23T10:51:07;7.90;99.90
8939;DHT22;4504;48.810;9.172;2024-02-23T10:53:36;8.00;99.90
8939;DHT22;4504;48.810;9.172;2024-02-23T10:56:03;8.10;99.90
8939;DHT22;4504;48.810;9.172;2024-02-23T10:58:31;8.10;99.90
8939;DHT22;4504;48.810;9.172;2024-02-23T11:00:59;8.10;99.90
8939;DHT22;4504;48.810;9.172;2024-02-23T11:03:28;8.10;99.90
8939;DHT22;4504;48.810;9.172;2024-02-23T11:05:56;8.10;99.90
8939;DHT22;4504;48.810;9.172;2024-02-23T11:08:23;8.10;99.90
8939;DHT22;4504;48.810;9.172;2024-02-23T11:10:50;8.20;99.90
8939;DHT22;4504;48.810;9.172;2024-02-23T11:13:18;8.30;99.90
8939;DHT22;4504;48.810;9.172;2024-02-23T11:15:45;8.40;99.90
8939;DHT22;4504;48.810;9.172;2024-02-23T11:18:21;8.50;99.90
